KBVY/BVY METAR and TAF weather

Enter ICAO airport designator
Station Type Date Time Source
KBVY METAR 2018/01/22 20:01 UTC NOAA

KBVY 222001Z 05008KT 2SM BR OVC004 03/03 A3026 RMK AO2 CIG 003V007 T00330028


Station Type Date Time Source
KBVY Decoded METAR 2018/01/22 20:01 UTC NOAA

BEVERLY MUNICIPAL AIRPORT, MA, United States (KBVY) 42-35N 070-55W 28M
Jan 22, 2018 - 03:01 PM EST / 2018.01.22 2001 UTC
Wind: from the NE (050 degrees) at 9 MPH (8 KT):0
Visibility: 2 mile(s):0
Sky conditions: overcast
Weather: mist
Temperature: 37.9 F (3.3 C)
Dew Point: 37.0 F (2.8 C)
Relative Humidity: 96%
Pressure (altimeter): 30.26 in. Hg (1024 hPa)
ob: KBVY 222001Z 05008KT 2SM BR OVC004 03/03 A3026 RMK AO2 CIG 003V007 T00330028
cycle: 20

Station Type Date Time Source
KBVY TAF UTC NOAA

Error!


Example: see airport list